»·PEaware :: AAL985 KSAN-KPHX

AAL985 :: KSAN-KPHX

FLIGHT INFORMATION

Flight Status: Arrived
Operator:
American Airlines
More flights by this operator :: More flights under this callsign
Pilot: Vimal G. (13143)
Aircraft: BOEING 737-800
(B738)
More flights by this aircraft type
Origin: KSAN San Diego Intl-Lindbergh
United States
Destination: KPHX Phoenix Sky Harbor Intl
United States
More flights between these airports :: More routes between these airports
Route: +ZZOOO2 IPL J18 BZA HOGGZ HYDRR1
File this flight plan on PilotEdge
Remarks: PBN / A1B1C1D1S1S2 DOF / 180514 REG / N806SB EET / KZAB0024 OPR / AAL PER / C RMK / TCAS SIMBRIEF
Altitude:
(Current/Filed)
31,000ft
Speed:
(Current/Filed)
451kts
Departed: 13-May-18 08:00 PM
Arrived: 13-May-18 08:59 PM
Distance/Time
Traveled:
264nm/0:59
Distance/Time
To Go:
Arrived

Flight Plot

Page will automatically refresh every two minutes.

Flight plan parsing failed; only flown route is shown


Map Options




Map Legend


Flown Route
Filed Route
Departure Airport
Arrival Airport
Navaid (VOR, NDB)
Fix

Horizontal Profiles

Position Reports

Time Latitude Longitude Heading Altitude Ground
Speed
13-May-18 18:49 32.734142 -117.203337 270 25ft 0kts
13-May-18 18:50 32.734142 -117.203337 270 25ft 0kts
13-May-18 18:51 32.734142 -117.203337 270 25ft 0kts
13-May-18 18:52 32.734142 -117.203337 270 25ft 0kts
13-May-18 18:53 32.734142 -117.203337 270 25ft 0kts
13-May-18 18:54 32.734142 -117.203337 270 25ft 0kts
13-May-18 18:55 32.734142 -117.203337 270 25ft 0kts
13-May-18 18:56 32.734142 -117.203337 270 25ft 0kts
13-May-18 18:57 32.734142 -117.203337 270 25ft 0kts
13-May-18 18:58 32.734142 -117.203337 270 25ft 0kts
13-May-18 18:59 32.734142 -117.203337 270 25ft 0kts
13-May-18 19:00 32.734142 -117.203337 270 25ft 0kts
13-May-18 19:01 32.734142 -117.203337 270 25ft 0kts
13-May-18 19:02 32.734142 -117.203337 270 25ft 0kts
13-May-18 19:03 32.734142 -117.203337 270 25ft 0kts
13-May-18 19:04 32.734142 -117.203337 270 25ft 0kts
13-May-18 19:05 32.734142 -117.203337 270 25ft 0kts
13-May-18 19:06 32.734142 -117.203337 270 25ft 0kts
13-May-18 19:07 32.734142 -117.203337 270 25ft 0kts
13-May-18 19:08 32.734142 -117.203337 270 25ft 0kts
13-May-18 19:09 32.734142 -117.203337 270 25ft 0kts
13-May-18 19:10 32.734142 -117.203337 270 25ft 0kts
13-May-18 19:11 32.734142 -117.203337 270 25ft 0kts
13-May-18 19:12 32.734142 -117.203337 270 25ft 0kts
13-May-18 19:13 32.734142 -117.203337 270 25ft 0kts
13-May-18 19:14 32.734142 -117.203337 270 25ft 0kts
13-May-18 19:15 32.734142 -117.203337 270 25ft 0kts
13-May-18 19:16 32.734142 -117.203337 270 25ft 0kts
13-May-18 19:17 32.734142 -117.203337 270 25ft 0kts
13-May-18 19:18 32.734142 -117.203337 270 25ft 0kts
13-May-18 19:19 32.734142 -117.203337 270 25ft 0kts
13-May-18 19:20 32.734142 -117.203337 270 25ft 0kts
13-May-18 19:21 32.734142 -117.203337 270 25ft 0kts
13-May-18 19:22 32.734142 -117.203337 270 25ft 0kts
13-May-18 19:23 32.734142 -117.203337 270 25ft 0kts
13-May-18 19:24 32.734142 -117.203337 270 25ft 0kts
13-May-18 19:25 32.734142 -117.203337 270 25ft 0kts
13-May-18 19:26 32.734142 -117.203337 270 25ft 0kts
13-May-18 19:27 32.734142 -117.203337 270 25ft 0kts
13-May-18 19:28 32.734142 -117.203337 270 25ft 0kts
13-May-18 19:29 32.734142 -117.203337 270 25ft 0kts
13-May-18 19:30 32.734142 -117.203337 270 25ft 0kts
13-May-18 19:31 32.734142 -117.203337 270 25ft 0kts
13-May-18 19:32 32.734142 -117.203337 270 25ft 0kts
13-May-18 19:33 32.734142 -117.203337 270 25ft 0kts
13-May-18 19:34 32.734142 -117.203337 270 25ft 0kts
13-May-18 19:35 32.734142 -117.203337 270 25ft 0kts
13-May-18 19:36 32.734142 -117.203337 270 25ft 0kts
13-May-18 19:37 32.734142 -117.203337 270 25ft 0kts
13-May-18 19:38 32.734142 -117.203337 270 25ft 0kts
13-May-18 19:39 32.734142 -117.203337 270 25ft 0kts
13-May-18 19:40 32.734142 -117.203337 270 25ft 0kts
13-May-18 19:41 32.734142 -117.203337 270 25ft 0kts
13-May-18 19:42 32.734142 -117.203337 270 25ft 0kts
13-May-18 19:43 32.734143 -117.203030 274 25ft 2kts
13-May-18 19:44 32.733763 -117.202793 16 25ft 1kts
13-May-18 19:45 32.733758 -117.202795 16 25ft 0kts
13-May-18 19:46 32.733758 -117.202795 16 25ft 0kts
13-May-18 19:47 32.733758 -117.202795 16 25ft 0kts
13-May-18 19:48 32.733758 -117.202795 16 25ft 0kts
13-May-18 19:49 32.733758 -117.202795 16 25ft 0kts
13-May-18 19:50 32.733758 -117.202795 16 25ft 0kts
13-May-18 19:51 32.733980 -117.202719 16 25ft 5kts
13-May-18 19:52 32.735232 -117.200865 108 25ft 9kts
13-May-18 19:53 32.734345 -117.197207 105 25ft 19kts
13-May-18 19:54 32.732450 -117.189301 105 25ft 26kts
13-May-18 19:55 32.730467 -117.181091 106 25ft 25kts
13-May-18 19:56 32.729513 -117.176781 74 25ft 0kts
13-May-18 19:57 32.729513 -117.176781 74 25ft 0kts
13-May-18 19:58 32.729513 -117.176781 74 25ft 0kts
13-May-18 19:59 32.730389 -117.176586 286 25ft 0kts
13-May-18 20:00 32.735308 -117.196964 286 180ft 169kts
13-May-18 20:01 32.749665 -117.257076 286 2635ft 229kts
13-May-18 20:02 32.737995 -117.326261 198 5652ft 271kts
13-May-18 20:03 32.671422 -117.285869 141 8815ft 292kts
13-May-18 20:04 32.624663 -117.206229 96 11118ft 327kts
13-May-18 20:05 32.616203 -117.096221 95 13722ft 345kts
13-May-18 20:06 32.606455 -116.980748 96 16424ft 362kts
13-May-18 20:07 32.608958 -116.860549 74 18888ft 377kts
13-May-18 20:08 32.632241 -116.737607 81 21117ft 392kts
13-May-18 20:09 32.645543 -116.607033 82 23146ft 406kts
13-May-18 20:10 32.658784 -116.472090 82 24974ft 418kts
13-May-18 20:11 32.672055 -116.334708 83 26584ft 431kts
13-May-18 20:12 32.685699 -116.191693 83 27968ft 443kts
13-May-18 20:13 32.699511 -116.044851 83 29340ft 452kts
13-May-18 20:14 32.712208 -115.908376 83 30802ft 451kts
13-May-18 20:15 32.726243 -115.755715 83 30911ft 484kts
13-May-18 20:16 32.740842 -115.594292 83 30898ft 493kts
13-May-18 20:17 32.751325 -115.432372 87 30887ft 493kts
13-May-18 20:18 32.755065 -115.271583 88 30892ft 493kts
13-May-18 20:19 32.758797 -115.109220 88 30899ft 494kts
13-May-18 20:20 32.762343 -114.946513 89 30252ft 479kts
13-May-18 20:21 32.764984 -114.791763 89 29256ft 470kts
13-May-18 20:22 32.767462 -114.637614 89 28263ft 462kts
13-May-18 20:23 32.769724 -114.486769 89 27290ft 455kts
13-May-18 20:24 32.771756 -114.340369 89 26330ft 448kts
13-May-18 20:25 32.773484 -114.210170 90 25431ft 442kts
13-May-18 20:26 32.775378 -114.065644 87 24900ft 438kts
13-May-18 20:27 32.790313 -113.921968 82 24900ft 438kts
13-May-18 20:28 32.805992 -113.779535 82 23976ft 432kts
13-May-18 20:29 32.843313 -113.648704 47 23010ft 421kts
13-May-18 20:30 32.920066 -113.546278 46 22037ft 414kts
13-May-18 20:31 32.996060 -113.444596 46 21065ft 411kts
13-May-18 20:32 33.070809 -113.343982 47 20110ft 411kts
13-May-18 20:33 33.144081 -113.245272 48 19125ft 406kts
13-May-18 20:34 33.218061 -113.145169 49 18091ft 392kts
13-May-18 20:35 33.273008 -113.042773 85 17066ft 363kts
13-May-18 20:36 33.277509 -112.923806 91 16082ft 350kts
13-May-18 20:37 33.280424 -112.812289 90 15038ft 327kts
13-May-18 20:38 33.290554 -112.703028 86 14050ft 328kts
13-May-18 20:39 33.300835 -112.595715 86 13049ft 322kts
13-May-18 20:40 33.310705 -112.490740 86 12053ft 316kts
13-May-18 20:41 33.320338 -112.386762 86 11058ft 312kts
13-May-18 20:42 33.329638 -112.285906 86 10240ft 302kts
13-May-18 20:43 33.338446 -112.189829 86 9213ft 286kts
13-May-18 20:44 33.346585 -112.100298 85 8268ft 260kts
13-May-18 20:45 33.347171 -112.014944 92 7275ft 257kts
13-May-18 20:46 33.346979 -111.930822 90 6694ft 253kts
13-May-18 20:47 33.347395 -111.850230 90 7002ft 253kts
13-May-18 20:48 33.347970 -111.767809 90 7007ft 253kts
13-May-18 20:49 33.348679 -111.688086 90 7011ft 252kts
13-May-18 20:50 33.384081 -111.622080 19 7020ft 249kts
13-May-18 20:51 33.445606 -111.637252 307 6894ft 231kts
13-May-18 20:52 33.447470 -111.706561 250 6457ft 223kts
13-May-18 20:53 33.440542 -111.776772 268 5984ft 193kts
13-May-18 20:54 33.440519 -111.833514 269 5318ft 166kts
13-May-18 20:55 33.440675 -111.885565 270 3447ft 158kts
13-May-18 20:56 33.440738 -111.932905 271 2635ft 139kts
13-May-18 20:57 33.440662 -111.979675 271 1411ft 138kts
13-May-18 20:58 33.440868 -112.017416 270 1142ft 44kts
13-May-18 20:59 33.439928 -112.020908 219 1142ft 0kts
13-May-18 21:00 33.439928 -112.020908 219 1142ft 0kts
13-May-18 21:01 33.439928 -112.020908 219 1142ft 0kts
13-May-18 21:02 33.439820 -112.021010 216 1142ft 3kts
13-May-18 21:03 33.439017 -112.018223 89 1142ft 20kts
13-May-18 21:04 33.439054 -112.010947 89 1142ft 21kts
13-May-18 21:05 33.438231 -112.007332 181 1142ft 7kts
13-May-18 21:06 33.437410 -112.008100 268 1142ft 2kts
13-May-18 21:07 33.437408 -112.008165 269 1142ft 0kts
13-May-18 21:08 33.437408 -112.008165 269 1142ft 0kts
13-May-18 21:09 33.437408 -112.008165 269 1142ft 0kts
13-May-18 21:10 33.437408 -112.008165 269 1142ft 0kts

Navigation Log

Ident Type
Flight plan parsing failed, navigation log unavailable